sensor_id;sensor_type;location;lat;lon;timestamp;pressure;altitude;pressure_sealevel;temperature;humidity
59417;BME280;45222;52.458;20.914;2023-03-09T00:03:10;98793.52;;;-0.31;86.27
59417;BME280;45222;52.458;20.914;2023-03-09T00:07:00;98797.29;;;-0.34;86.32
59417;BME280;45222;52.458;20.914;2023-03-09T00:10:45;98797.73;;;-0.43;87.02
59417;BME280;45222;52.458;20.914;2023-03-09T00:14:32;98797.13;;;-0.52;87.93
59417;BME280;45222;52.458;20.914;2023-03-09T00:18:19;98792.55;;;-0.58;87.99
59417;BME280;45222;52.458;20.914;2023-03-09T00:22:04;98790.60;;;-0.56;87.89
59417;BME280;45222;52.458;20.914;2023-03-09T00:25:50;98786.51;;;-0.53;88.20
59417;BME280;45222;52.458;20.914;2023-03-09T00:29:35;98784.23;;;-0.53;88.05
59417;BME280;45222;52.458;20.914;2023-03-09T00:33:20;98788.10;;;-0.54;88.07
59417;BME280;45222;52.458;20.914;2023-03-09T00:37:05;98790.71;;;-0.54;87.66
59417;BME280;45222;52.458;20.914;2023-03-09T00:40:51;98796.26;;;-0.58;88.18
59417;BME280;45222;52.458;20.914;2023-03-09T00:44:36;98797.16;;;-0.60;87.95
59417;BME280;45222;52.458;20.914;2023-03-09T00:48:22;98791.38;;;-0.65;88.39
59417;BME280;45222;52.458;20.914;2023-03-09T00:52:08;98797.14;;;-0.65;88.03
59417;BME280;45222;52.458;20.914;2023-03-09T00:55:53;98790.86;;;-0.65;88.01
59417;BME280;45222;52.458;20.914;2023-03-09T00:59:42;98788.58;;;-0.59;87.75
59417;BME280;45222;52.458;20.914;2023-03-09T01:03:28;98784.42;;;-0.60;88.09
59417;BME280;45222;52.458;20.914;2023-03-09T01:07:13;98783.47;;;-0.63;88.25
59417;BME280;45222;52.458;20.914;2023-03-09T01:11:00;98776.14;;;-0.69;87.90
59417;BME280;45222;52.458;20.914;2023-03-09T01:14:49;98773.09;;;-0.73;88.09
59417;BME280;45222;52.458;20.914;2023-03-09T01:18:37;98774.40;;;-0.76;88.15
59417;BME280;45222;52.458;20.914;2023-03-09T01:22:23;98775.42;;;-0.75;88.25
59417;BME280;45222;52.458;20.914;2023-03-09T01:26:08;98775.86;;;-0.72;88.28
59417;BME280;45222;52.458;20.914;2023-03-09T01:29:54;98769.67;;;-0.69;88.14
59417;BME280;45222;52.458;20.914;2023-03-09T01:33:39;98771.50;;;-0.73;88.00
59417;BME280;45222;52.458;20.914;2023-03-09T01:37:24;98771.38;;;-0.80;88.10
59417;BME280;45222;52.458;20.914;2023-03-09T01:41:10;98770.27;;;-0.85;87.86
59417;BME280;45222;52.458;20.914;2023-03-09T01:49:25;98767.14;;;-0.78;87.87
59417;BME280;45222;52.458;20.914;2023-03-09T01:53:15;98767.69;;;-0.79;87.74
59417;BME280;45222;52.458;20.914;2023-03-09T01:57:07;98768.10;;;-0.82;87.91
59417;BME280;45222;52.458;20.914;2023-03-09T02:00:55;98771.16;;;-0.85;87.76
59417;BME280;45222;52.458;20.914;2023-03-09T02:04:43;98765.56;;;-0.85;87.52
59417;BME280;45222;52.458;20.914;2023-03-09T02:08:28;98765.46;;;-0.87;87.70
59417;BME280;45222;52.458;20.914;2023-03-09T02:12:18;98766.98;;;-0.86;87.58
59417;BME280;45222;52.458;20.914;2023-03-09T02:16:04;98767.45;;;-0.84;87.45
59417;BME280;45222;52.458;20.914;2023-03-09T02:19:56;98773.99;;;-0.81;87.47
59417;BME280;45222;52.458;20.914;2023-03-09T02:23:47;98767.80;;;-0.77;87.44
59417;BME280;45222;52.458;20.914;2023-03-09T02:27:34;98761.23;;;-0.80;87.43
59417;BME280;45222;52.458;20.914;2023-03-09T02:31:20;98756.53;;;-0.86;87.55
59417;BME280;45222;52.458;20.914;2023-03-09T02:35:07;98756.50;;;-0.91;87.40
59417;BME280;45222;52.458;20.914;2023-03-09T02:38:54;98760.06;;;-0.88;87.21
59417;BME280;45222;52.458;20.914;2023-03-09T02:42:40;98759.10;;;-0.85;87.28
59417;BME280;45222;52.458;20.914;2023-03-09T02:46:26;98761.77;;;-0.86;87.42
59417;BME280;45222;52.458;20.914;2023-03-09T02:50:12;98766.30;;;-0.86;87.48
59417;BME280;45222;52.458;20.914;2023-03-09T02:53:57;98768.08;;;-0.87;87.26
59417;BME280;45222;52.458;20.914;2023-03-09T02:57:42;98762.15;;;-0.94;87.20
59417;BME280;45222;52.458;20.914;2023-03-09T03:01:28;98765.52;;;-0.96;87.19
59417;BME280;45222;52.458;20.914;2023-03-09T03:05:14;98758.23;;;-0.98;87.27
59417;BME280;45222;52.458;20.914;2023-03-09T03:09:00;98761.46;;;-1.00;87.60
59417;BME280;45222;52.458;20.914;2023-03-09T03:12:46;98769.30;;;-1.00;87.81
59417;BME280;45222;52.458;20.914;2023-03-09T03:16:33;98776.38;;;-0.97;87.77
59417;BME280;45222;52.458;20.914;2023-03-09T03:20:19;98785.52;;;-0.93;87.76
59417;BME280;45222;52.458;20.914;2023-03-09T03:24:05;98792.38;;;-0.89;87.55
59417;BME280;45222;52.458;20.914;2023-03-09T03:27:51;98790.60;;;-0.87;87.28
59417;BME280;45222;52.458;20.914;2023-03-09T03:31:37;98782.02;;;-0.93;87.32
59417;BME280;45222;52.458;20.914;2023-03-09T03:35:22;98782.10;;;-0.96;87.23
59417;BME280;45222;52.458;20.914;2023-03-09T03:39:07;98784.77;;;-0.91;87.29
59417;BME280;45222;52.458;20.914;2023-03-09T03:42:53;98784.42;;;-0.91;87.33
59417;BME280;45222;52.458;20.914;2023-03-09T03:46:38;98782.52;;;-0.92;87.51
59417;BME280;45222;52.458;20.914;2023-03-09T03:50:24;98786.65;;;-0.90;87.57
59417;BME280;45222;52.458;20.914;2023-03-09T03:54:09;98799.54;;;-0.89;87.55
59417;BME280;45222;52.458;20.914;2023-03-09T03:57:55;98810.55;;;-0.89;87.48
59417;BME280;45222;52.458;20.914;2023-03-09T04:01:40;98816.61;;;-0.88;87.46
59417;BME280;45222;52.458;20.914;2023-03-09T04:05:26;98819.74;;;-0.88;86.95
59417;BME280;45222;52.458;20.914;2023-03-09T04:09:11;98817.45;;;-0.93;86.87
59417;BME280;45222;52.458;20.914;2023-03-09T04:12:56;98829.21;;;-0.96;87.00
59417;BME280;45222;52.458;20.914;2023-03-09T04:16:42;98829.33;;;-1.00;87.18
59417;BME280;45222;52.458;20.914;2023-03-09T04:20:27;98831.36;;;-0.98;87.04
59417;BME280;45222;52.458;20.914;2023-03-09T04:24:12;98818.52;;;-1.00;87.42
59417;BME280;45222;52.458;20.914;2023-03-09T04:27:58;98816.48;;;-1.03;87.27
59417;BME280;45222;52.458;20.914;2023-03-09T04:31:43;98811.10;;;-1.11;87.47
59417;BME280;45222;52.458;20.914;2023-03-09T04:35:28;98817.27;;;-1.13;87.62
59417;BME280;45222;52.458;20.914;2023-03-09T04:39:14;98819.83;;;-1.17;87.80
59417;BME280;45222;52.458;20.914;2023-03-09T04:43:00;98822.83;;;-1.19;87.64
59417;BME280;45222;52.458;20.914;2023-03-09T04:46:45;98821.71;;;-1.23;87.92
59417;BME280;45222;52.458;20.914;2023-03-09T04:50:30;98826.23;;;-1.23;87.77
59417;BME280;45222;52.458;20.914;2023-03-09T04:54:16;98828.17;;;-1.23;87.77
59417;BME280;45222;52.458;20.914;2023-03-09T04:58:01;98828.39;;;-1.18;87.81
59417;BME280;45222;52.458;20.914;2023-03-09T05:01:46;98824.17;;;-1.17;87.98
59417;BME280;45222;52.458;20.914;2023-03-09T05:05:31;98814.57;;;-1.16;88.07
59417;BME280;45222;52.458;20.914;2023-03-09T05:09:16;98806.52;;;-1.16;88.12
59417;BME280;45222;52.458;20.914;2023-03-09T05:13:02;98803.29;;;-1.19;88.44
59417;BME280;45222;52.458;20.914;2023-03-09T05:16:50;98797.40;;;-1.21;88.31
59417;BME280;45222;52.458;20.914;2023-03-09T05:20:37;98795.02;;;-1.23;88.61
59417;BME280;45222;52.458;20.914;2023-03-09T05:24:23;98807.27;;;-1.17;88.51
59417;BME280;45222;52.458;20.914;2023-03-09T05:28:09;98820.20;;;-1.12;88.45
59417;BME280;45222;52.458;20.914;2023-03-09T05:31:55;98821.31;;;-1.07;88.21
59417;BME280;45222;52.458;20.914;2023-03-09T05:35:41;98826.21;;;-1.08;88.02
59417;BME280;45222;52.458;20.914;2023-03-09T05:39:26;98825.94;;;-1.11;87.83
59417;BME280;45222;52.458;20.914;2023-03-09T05:43:12;98828.08;;;-1.13;87.85
59417;BME280;45222;52.458;20.914;2023-03-09T05:46:57;98823.32;;;-1.11;87.89
59417;BME280;45222;52.458;20.914;2023-03-09T05:50:42;98824.55;;;-1.04;87.86
59417;BME280;45222;52.458;20.914;2023-03-09T05:54:28;98826.27;;;-1.03;87.74
59417;BME280;45222;52.458;20.914;2023-03-09T05:58:13;98836.55;;;-1.02;87.65
59417;BME280;45222;52.458;20.914;2023-03-09T06:01:59;98845.80;;;-1.03;87.64
59417;BME280;45222;52.458;20.914;2023-03-09T06:05:44;98855.20;;;-0.95;87.42
59417;BME280;45222;52.458;20.914;2023-03-09T06:09:30;98854.27;;;-0.86;87.45
59417;BME280;45222;52.458;20.914;2023-03-09T06:13:15;98844.28;;;-0.72;87.26
59417;BME280;45222;52.458;20.914;2023-03-09T06:17:00;98842.33;;;-0.64;86.91
59417;BME280;45222;52.458;20.914;2023-03-09T06:20:46;98848.29;;;-0.59;86.73
59417;BME280;45222;52.458;20.914;2023-03-09T06:24:31;98850.99;;;-0.56;86.39
59417;BME280;45222;52.458;20.914;2023-03-09T06:28:19;98853.03;;;-0.47;86.43
59417;BME280;45222;52.458;20.914;2023-03-09T06:32:05;98858.44;;;-0.34;86.30
59417;BME280;45222;52.458;20.914;2023-03-09T06:35:50;98862.14;;;-0.23;86.01
59417;BME280;45222;52.458;20.914;2023-03-09T06:39:36;98867.38;;;-0.10;85.78
59417;BME280;45222;52.458;20.914;2023-03-09T06:43:21;98865.45;;;-0.04;85.32
59417;BME280;45222;52.458;20.914;2023-03-09T06:47:07;98862.16;;;0.01;85.02
59417;BME280;45222;52.458;20.914;2023-03-09T06:50:52;98867.41;;;0.06;84.77
59417;BME280;45222;52.458;20.914;2023-03-09T06:54:37;98866.63;;;0.09;84.56
59417;BME280;45222;52.458;20.914;2023-03-09T06:58:23;98872.19;;;0.10;84.55
59417;BME280;45222;52.458;20.914;2023-03-09T07:02:12;98868.64;;;0.17;84.23
59417;BME280;45222;52.458;20.914;2023-03-09T07:05:57;98862.67;;;0.30;84.17
59417;BME280;45222;52.458;20.914;2023-03-09T07:09:42;98858.05;;;0.38;83.36
59417;BME280;45222;52.458;20.914;2023-03-09T07:13:28;98857.00;;;0.38;83.12
59417;BME280;45222;52.458;20.914;2023-03-09T07:17:14;98866.40;;;0.45;83.14
59417;BME280;45222;52.458;20.914;2023-03-09T07:21:00;98867.75;;;0.47;82.88
59417;BME280;45222;52.458;20.914;2023-03-09T07:24:45;98864.22;;;0.48;83.01
59417;BME280;45222;52.458;20.914;2023-03-09T07:28:31;98868.98;;;0.47;83.19
59417;BME280;45222;52.458;20.914;2023-03-09T07:32:16;98865.13;;;0.52;82.97
59417;BME280;45222;52.458;20.914;2023-03-09T07:36:04;98861.51;;;0.56;82.63
59417;BME280;45222;52.458;20.914;2023-03-09T07:39:49;98866.67;;;0.47;82.33
59417;BME280;45222;52.458;20.914;2023-03-09T07:43:34;98867.42;;;0.40;82.21
59417;BME280;45222;52.458;20.914;2023-03-09T07:47:20;98874.29;;;0.44;82.51
59417;BME280;45222;52.458;20.914;2023-03-09T07:51:06;98874.55;;;0.54;82.23
59417;BME280;45222;52.458;20.914;2023-03-09T07:54:51;98878.55;;;0.65;82.02
59417;BME280;45222;52.458;20.914;2023-03-09T07:58:38;98877.54;;;0.69;81.67
59417;BME280;45222;52.458;20.914;2023-03-09T08:02:23;98879.53;;;0.72;81.13
59417;BME280;45222;52.458;20.914;2023-03-09T08:06:09;98882.89;;;0.71;80.82
59417;BME280;45222;52.458;20.914;2023-03-09T08:09:55;98879.41;;;0.82;80.83
59417;BME280;45222;52.458;20.914;2023-03-09T08:13:40;98875.41;;;0.92;80.60
59417;BME280;45222;52.458;20.914;2023-03-09T08:17:25;98875.73;;;1.03;80.21
59417;BME280;45222;52.458;20.914;2023-03-09T08:21:12;98878.84;;;1.15;80.02
59417;BME280;45222;52.458;20.914;2023-03-09T08:24:57;98884.05;;;1.22;79.53
59417;BME280;45222;52.458;20.914;2023-03-09T08:28:44;98882.08;;;1.23;79.01
59417;BME280;45222;52.458;20.914;2023-03-09T08:32:29;98887.85;;;1.33;78.84
59417;BME280;45222;52.458;20.914;2023-03-09T08:36:18;98891.68;;;1.44;79.02
59417;BME280;45222;52.458;20.914;2023-03-09T08:40:05;98892.19;;;1.60;79.11
59417;BME280;45222;52.458;20.914;2023-03-09T08:43:51;98889.39;;;1.75;77.80
59417;BME280;45222;52.458;20.914;2023-03-09T08:47:37;98891.50;;;1.74;76.70
59417;BME280;45222;52.458;20.914;2023-03-09T08:51:23;98883.95;;;1.74;76.97
59417;BME280;45222;52.458;20.914;2023-03-09T08:55:10;98880.42;;;1.80;76.40
59417;BME280;45222;52.458;20.914;2023-03-09T08:58:56;98873.23;;;1.89;76.33
59417;BME280;45222;52.458;20.914;2023-03-09T09:02:42;98866.39;;;1.99;76.69
59417;BME280;45222;52.458;20.914;2023-03-09T09:06:27;98874.86;;;2.02;75.42
59417;BME280;45222;52.458;20.914;2023-03-09T09:10:14;98879.78;;;1.93;75.15
59417;BME280;45222;52.458;20.914;2023-03-09T09:13:59;98880.10;;;1.94;75.07
59417;BME280;45222;52.458;20.914;2023-03-09T09:17:44;98883.41;;;2.03;75.45
59417;BME280;45222;52.458;20.914;2023-03-09T09:21:30;98888.83;;;2.23;75.14
59417;BME280;45222;52.458;20.914;2023-03-09T09:25:15;98888.87;;;2.31;74.15
59417;BME280;45222;52.458;20.914;2023-03-09T09:29:00;98891.89;;;2.34;73.58
59417;BME280;45222;52.458;20.914;2023-03-09T09:32:46;98895.17;;;2.40;73.58
59417;BME280;45222;52.458;20.914;2023-03-09T09:36:31;98892.85;;;2.46;72.61
59417;BME280;45222;52.458;20.914;2023-03-09T09:40:19;98899.09;;;2.48;72.77
59417;BME280;45222;52.458;20.914;2023-03-09T09:44:06;98908.57;;;2.43;72.10
59417;BME280;45222;52.458;20.914;2023-03-09T09:47:55;98901.42;;;2.28;71.55
59417;BME280;45222;52.458;20.914;2023-03-09T09:56:00;98909.12;;;2.15;71.74
59417;BME280;45222;52.458;20.914;2023-03-09T09:59:51;98910.84;;;2.11;72.16
59417;BME280;45222;52.458;20.914;2023-03-09T10:03:41;98918.41;;;2.00;71.47
59417;BME280;45222;52.458;20.914;2023-03-09T10:07:27;98919.43;;;1.87;71.71
59417;BME280;45222;52.458;20.914;2023-03-09T10:11:20;98922.00;;;1.79;71.72
59417;BME280;45222;52.458;20.914;2023-03-09T10:15:13;98917.61;;;1.79;72.19
59417;BME280;45222;52.458;20.914;2023-03-09T10:19:02;98913.95;;;1.79;72.01
59417;BME280;45222;52.458;20.914;2023-03-09T10:22:50;98919.73;;;1.78;72.19
59417;BME280;45222;52.458;20.914;2023-03-09T10:26:41;98923.17;;;1.85;72.85
59417;BME280;45222;52.458;20.914;2023-03-09T10:30:38;98929.48;;;1.95;72.33
59417;BME280;45222;52.458;20.914;2023-03-09T10:34:26;98936.48;;;1.91;72.08
59417;BME280;45222;52.458;20.914;2023-03-09T10:38:15;98941.33;;;1.82;72.42
59417;BME280;45222;52.458;20.914;2023-03-09T10:42:11;98941.66;;;1.73;72.85
59417;BME280;45222;52.458;20.914;2023-03-09T10:46:11;98937.65;;;1.78;73.77
59417;BME280;45222;52.458;20.914;2023-03-09T10:50:10;98955.63;;;1.80;73.55
59417;BME280;45222;52.458;20.914;2023-03-09T10:53:56;98954.65;;;1.77;73.47
59417;BME280;45222;52.458;20.914;2023-03-09T10:57:59;98955.56;;;1.86;73.88
59417;BME280;45222;52.458;20.914;2023-03-09T11:01:46;98954.88;;;1.91;74.04
59417;BME280;45222;52.458;20.914;2023-03-09T11:05:32;98963.69;;;1.90;73.97
59417;BME280;45222;52.458;20.914;2023-03-09T11:09:20;98960.04;;;1.88;74.01
59417;BME280;45222;52.458;20.914;2023-03-09T11:13:18;98958.20;;;1.86;73.66
59417;BME280;45222;52.458;20.914;2023-03-09T11:17:04;98954.95;;;1.94;73.76
59417;BME280;45222;52.458;20.914;2023-03-09T11:20:53;98962.00;;;2.08;73.68
59417;BME280;45222;52.458;20.914;2023-03-09T11:24:43;98967.02;;;2.10;72.52
59417;BME280;45222;52.458;20.914;2023-03-09T11:28:40;98973.80;;;2.11;72.24
59417;BME280;45222;52.458;20.914;2023-03-09T11:32:26;98970.75;;;2.08;70.80
59417;BME280;45222;52.458;20.914;2023-03-09T11:36:15;98979.17;;;2.03;69.36
59417;BME280;45222;52.458;20.914;2023-03-09T11:40:03;98983.03;;;1.98;68.80
59417;BME280;45222;52.458;20.914;2023-03-09T11:43:53;98985.80;;;2.04;69.60
59417;BME280;45222;52.458;20.914;2023-03-09T11:47:42;98990.05;;;2.03;68.47
59417;BME280;45222;52.458;20.914;2023-03-09T11:51:30;98983.08;;;2.02;68.28
59417;BME280;45222;52.458;20.914;2023-03-09T11:55:23;98979.93;;;2.06;68.03
59417;BME280;45222;52.458;20.914;2023-03-09T11:59:15;98979.21;;;2.07;66.56
59417;BME280;45222;52.458;20.914;2023-03-09T12:03:09;98976.73;;;2.07;66.84
59417;BME280;45222;52.458;20.914;2023-03-09T12:06:58;98974.40;;;2.04;65.65
59417;BME280;45222;52.458;20.914;2023-03-09T12:10:48;98978.25;;;2.04;66.92
59417;BME280;45222;52.458;20.914;2023-03-09T12:14:38;98983.45;;;2.01;66.18
59417;BME280;45222;52.458;20.914;2023-03-09T12:18:27;98988.68;;;1.92;65.69
59417;BME280;45222;52.458;20.914;2023-03-09T12:22:17;98992.95;;;1.80;66.05
59417;BME280;45222;52.458;20.914;2023-03-09T12:26:15;98986.72;;;1.72;64.04
59417;BME280;45222;52.458;20.914;2023-03-09T12:30:10;98990.36;;;1.64;64.40
59417;BME280;45222;52.458;20.914;2023-03-09T12:34:22;98997.99;;;1.66;64.07
59417;BME280;45222;52.458;20.914;2023-03-09T12:38:22;99002.48;;;1.63;63.22
59417;BME280;45222;52.458;20.914;2023-03-09T12:42:27;99011.77;;;1.58;62.43
59417;BME280;45222;52.458;20.914;2023-03-09T12:50:49;99013.74;;;1.51;63.18
59417;BME280;45222;52.458;20.914;2023-03-09T12:54:35;99023.61;;;1.54;63.35
59417;BME280;45222;52.458;20.914;2023-03-09T12:58:40;99029.70;;;1.55;63.66
59417;BME280;45222;52.458;20.914;2023-03-09T13:02:30;99024.24;;;1.62;62.81
59417;BME280;45222;52.458;20.914;2023-03-09T13:06:25;99035.27;;;1.63;63.35
59417;BME280;45222;52.458;20.914;2023-03-09T13:10:29;99042.64;;;1.62;62.43
59417;BME280;45222;52.458;20.914;2023-03-09T13:14:31;99041.34;;;1.58;62.98
59417;BME280;45222;52.458;20.914;2023-03-09T13:18:25;99046.32;;;1.67;63.38
59417;BME280;45222;52.458;20.914;2023-03-09T13:22:18;99044.86;;;1.74;62.12
59417;BME280;45222;52.458;20.914;2023-03-09T13:26:12;99057.00;;;1.78;62.53
59417;BME280;45222;52.458;20.914;2023-03-09T13:30:12;99065.13;;;1.76;63.39
59417;BME280;45222;52.458;20.914;2023-03-09T13:34:00;99069.88;;;1.70;63.82
59417;BME280;45222;52.458;20.914;2023-03-09T13:37:46;99072.11;;;1.61;63.03
59417;BME280;45222;52.458;20.914;2023-03-09T13:41:33;99072.24;;;1.51;62.82
59417;BME280;45222;52.458;20.914;2023-03-09T13:45:20;99087.31;;;1.40;62.81
59417;BME280;45222;52.458;20.914;2023-03-09T13:49:12;99105.43;;;1.20;62.70
59417;BME280;45222;52.458;20.914;2023-03-09T13:53:03;99119.49;;;1.01;62.63
59417;BME280;45222;52.458;20.914;2023-03-09T13:57:03;99113.09;;;0.86;63.42
59417;BME280;45222;52.458;20.914;2023-03-09T14:00:53;99116.08;;;0.80;62.83
59417;BME280;45222;52.458;20.914;2023-03-09T14:04:45;99112.45;;;0.78;63.31
59417;BME280;45222;52.458;20.914;2023-03-09T14:08:34;99120.25;;;0.74;62.42
59417;BME280;45222;52.458;20.914;2023-03-09T14:12:26;99121.52;;;0.73;62.64
59417;BME280;45222;52.458;20.914;2023-03-09T14:16:15;99130.14;;;0.72;62.48
59417;BME280;45222;52.458;20.914;2023-03-09T14:20:12;99136.02;;;0.67;62.38
59417;BME280;45222;52.458;20.914;2023-03-09T14:24:19;99141.00;;;0.64;62.27
59417;BME280;45222;52.458;20.914;2023-03-09T14:28:24;99135.33;;;0.62;62.87
59417;BME280;45222;52.458;20.914;2023-03-09T14:32:25;99125.02;;;0.60;62.83
59417;BME280;45222;52.458;20.914;2023-03-09T14:36:17;99129.45;;;0.58;63.41
59417;BME280;45222;52.458;20.914;2023-03-09T14:40:18;99138.73;;;0.58;62.90
59417;BME280;45222;52.458;20.914;2023-03-09T14:44:04;99143.86;;;0.56;61.84
59417;BME280;45222;52.458;20.914;2023-03-09T14:47:53;99155.37;;;0.51;60.92
59417;BME280;45222;52.458;20.914;2023-03-09T14:51:41;99166.34;;;0.46;60.29
59417;BME280;45222;52.458;20.914;2023-03-09T14:55:27;99173.18;;;0.45;60.36
59417;BME280;45222;52.458;20.914;2023-03-09T14:59:13;99173.90;;;0.45;60.98
59417;BME280;45222;52.458;20.914;2023-03-09T15:02:59;99177.64;;;0.42;61.15
59417;BME280;45222;52.458;20.914;2023-03-09T15:06:46;99178.21;;;0.40;61.85
59417;BME280;45222;52.458;20.914;2023-03-09T15:10:33;99180.18;;;0.38;63.63
59417;BME280;45222;52.458;20.914;2023-03-09T15:14:24;99181.42;;;0.31;65.57
59417;BME280;45222;52.458;20.914;2023-03-09T15:18:14;99188.84;;;0.28;66.31
59417;BME280;45222;52.458;20.914;2023-03-09T15:22:00;99194.09;;;0.28;66.94
59417;BME280;45222;52.458;20.914;2023-03-09T15:25:45;99195.87;;;0.34;68.39
59417;BME280;45222;52.458;20.914;2023-03-09T15:29:32;99200.31;;;0.38;68.69
59417;BME280;45222;52.458;20.914;2023-03-09T15:33:18;99204.41;;;0.42;69.78
59417;BME280;45222;52.458;20.914;2023-03-09T15:37:04;99207.52;;;0.44;69.51
59417;BME280;45222;52.458;20.914;2023-03-09T15:40:50;99211.41;;;0.42;69.57
59417;BME280;45222;52.458;20.914;2023-03-09T15:44:35;99211.61;;;0.40;70.07
59417;BME280;45222;52.458;20.914;2023-03-09T15:48:20;99215.77;;;0.43;69.86
59417;BME280;45222;52.458;20.914;2023-03-09T15:52:06;99220.04;;;0.39;69.67
59417;BME280;45222;52.458;20.914;2023-03-09T15:55:57;99225.16;;;0.37;69.79
59417;BME280;45222;52.458;20.914;2023-03-09T15:59:42;99233.62;;;0.34;70.39
59417;BME280;45222;52.458;20.914;2023-03-09T16:03:29;99244.19;;;0.32;70.55
59417;BME280;45222;52.458;20.914;2023-03-09T16:07:15;99243.65;;;0.32;70.80
59417;BME280;45222;52.458;20.914;2023-03-09T16:11:00;99242.36;;;0.35;71.58
59417;BME280;45222;52.458;20.914;2023-03-09T16:14:45;99248.45;;;0.36;71.75
59417;BME280;45222;52.458;20.914;2023-03-09T16:18:30;99260.75;;;0.34;71.56
59417;BME280;45222;52.458;20.914;2023-03-09T16:22:16;99267.98;;;0.31;71.81
59417;BME280;45222;52.458;20.914;2023-03-09T16:26:01;99277.63;;;0.30;71.68
59417;BME280;45222;52.458;20.914;2023-03-09T16:29:47;99292.59;;;0.26;71.81
59417;BME280;45222;52.458;20.914;2023-03-09T16:33:32;99304.96;;;0.20;71.55
59417;BME280;45222;52.458;20.914;2023-03-09T16:37:17;99316.52;;;0.12;71.86
59417;BME280;45222;52.458;20.914;2023-03-09T16:41:06;99319.79;;;0.06;71.89
59417;BME280;45222;52.458;20.914;2023-03-09T16:44:51;99319.14;;;0.04;71.85
59417;BME280;45222;52.458;20.914;2023-03-09T16:48:38;99322.60;;;-0.03;72.14
59417;BME280;45222;52.458;20.914;2023-03-09T16:52:23;99327.10;;;-0.08;72.50
59417;BME280;45222;52.458;20.914;2023-03-09T16:56:09;99315.23;;;-0.09;72.09
59417;BME280;45222;52.458;20.914;2023-03-09T16:59:56;99314.41;;;-0.11;72.37
59417;BME280;45222;52.458;20.914;2023-03-09T17:03:42;99318.31;;;-0.06;72.98
59417;BME280;45222;52.458;20.914;2023-03-09T17:07:28;99321.54;;;-0.02;73.22
59417;BME280;45222;52.458;20.914;2023-03-09T17:11:15;99335.78;;;0.03;73.25
59417;BME280;45222;52.458;20.914;2023-03-09T17:15:00;99340.17;;;0.02;73.39
59417;BME280;45222;52.458;20.914;2023-03-09T17:18:46;99348.36;;;0.03;73.34
59417;BME280;45222;52.458;20.914;2023-03-09T17:22:32;99356.16;;;0.06;73.36
59417;BME280;45222;52.458;20.914;2023-03-09T17:26:17;99361.00;;;0.08;73.15
59417;BME280;45222;52.458;20.914;2023-03-09T17:30:04;99379.55;;;0.07;73.34
59417;BME280;45222;52.458;20.914;2023-03-09T17:33:49;99385.16;;;0.07;72.92
59417;BME280;45222;52.458;20.914;2023-03-09T17:37:35;99390.44;;;0.05;72.94
59417;BME280;45222;52.458;20.914;2023-03-09T17:41:21;99388.84;;;0.06;73.49
59417;BME280;45222;52.458;20.914;2023-03-09T17:45:10;99380.78;;;0.07;73.65
59417;BME280;45222;52.458;20.914;2023-03-09T17:48:55;99370.19;;;0.12;74.02
59417;BME280;45222;52.458;20.914;2023-03-09T17:52:41;99350.70;;;0.15;73.92
59417;BME280;45222;52.458;20.914;2023-03-09T17:56:27;99335.09;;;0.10;73.59
59417;BME280;45222;52.458;20.914;2023-03-09T18:00:14;99336.48;;;0.03;73.53
59417;BME280;45222;52.458;20.914;2023-03-09T18:04:00;99338.14;;;-0.02;73.24
59417;BME280;45222;52.458;20.914;2023-03-09T18:07:45;99340.05;;;-0.09;73.18
59417;BME280;45222;52.458;20.914;2023-03-09T18:11:32;99344.22;;;-0.17;73.06
59417;BME280;45222;52.458;20.914;2023-03-09T18:15:18;99354.35;;;-0.25;72.88
59417;BME280;45222;52.458;20.914;2023-03-09T18:19:04;99368.27;;;-0.30;72.80
59417;BME280;45222;52.458;20.914;2023-03-09T18:22:51;99376.88;;;-0.32;72.81
59417;BME280;45222;52.458;20.914;2023-03-09T18:26:37;99370.73;;;-0.31;73.09
59417;BME280;45222;52.458;20.914;2023-03-09T18:30:23;99377.65;;;-0.28;73.13
59417;BME280;45222;52.458;20.914;2023-03-09T18:34:09;99388.90;;;-0.22;73.15
59417;BME280;45222;52.458;20.914;2023-03-09T18:37:55;99391.04;;;-0.16;73.42
59417;BME280;45222;52.458;20.914;2023-03-09T18:41:41;99392.81;;;-0.08;72.97
59417;BME280;45222;52.458;20.914;2023-03-09T18:45:26;99400.70;;;-0.09;72.31
59417;BME280;45222;52.458;20.914;2023-03-09T18:49:12;99406.84;;;-0.11;71.90
59417;BME280;45222;52.458;20.914;2023-03-09T18:52:57;99407.58;;;-0.12;71.91
59417;BME280;45222;52.458;20.914;2023-03-09T18:56:43;99407.11;;;-0.15;71.66
59417;BME280;45222;52.458;20.914;2023-03-09T19:00:28;99411.39;;;-0.20;71.38
59417;BME280;45222;52.458;20.914;2023-03-09T19:04:14;99406.17;;;-0.30;71.43
59417;BME280;45222;52.458;20.914;2023-03-09T19:08:00;99404.34;;;-0.34;71.81
59417;BME280;45222;52.458;20.914;2023-03-09T19:11:45;99416.58;;;-0.35;71.62
59417;BME280;45222;52.458;20.914;2023-03-09T19:15:30;99415.95;;;-0.38;71.65
59417;BME280;45222;52.458;20.914;2023-03-09T19:19:16;99402.20;;;-0.41;71.85
59417;BME280;45222;52.458;20.914;2023-03-09T19:23:02;99412.34;;;-0.42;72.13
59417;BME280;45222;52.458;20.914;2023-03-09T19:26:47;99412.20;;;-0.35;72.62
59417;BME280;45222;52.458;20.914;2023-03-09T19:30:32;99411.26;;;-0.30;72.40
59417;BME280;45222;52.458;20.914;2023-03-09T19:34:18;99409.91;;;-0.24;72.51
59417;BME280;45222;52.458;20.914;2023-03-09T19:38:03;99408.17;;;-0.25;72.38
59417;BME280;45222;52.458;20.914;2023-03-09T19:41:50;99406.18;;;-0.30;72.24
59417;BME280;45222;52.458;20.914;2023-03-09T19:45:36;99402.05;;;-0.34;72.13
59417;BME280;45222;52.458;20.914;2023-03-09T19:49:21;99404.20;;;-0.36;71.61
59417;BME280;45222;52.458;20.914;2023-03-09T19:53:06;99415.27;;;-0.39;71.03
59417;BME280;45222;52.458;20.914;2023-03-09T19:56:51;99421.41;;;-0.41;70.79
59417;BME280;45222;52.458;20.914;2023-03-09T20:00:37;99409.95;;;-0.44;70.93
59417;BME280;45222;52.458;20.914;2023-03-09T20:04:23;99407.86;;;-0.45;71.09
59417;BME280;45222;52.458;20.914;2023-03-09T20:08:08;99430.98;;;-0.48;71.12
59417;BME280;45222;52.458;20.914;2023-03-09T20:11:54;99429.45;;;-0.50;70.92